sensor_id;sensor_type;location;lat;lon;timestamp;temperature;humidity
17986;DHT22;9118;48.122;11.546;2023-02-15T00:01:40;3.30;99.90
17986;DHT22;9118;48.122;11.546;2023-02-15T00:04:08;3.60;99.90
17986;DHT22;9118;48.122;11.546;2023-02-15T00:06:36;3.30;99.90
17986;DHT22;9118;48.122;11.546;2023-02-15T00:09:03;2.80;99.90
17986;DHT22;9118;48.122;11.546;2023-02-15T00:11:32;2.90;99.90
17986;DHT22;9118;48.122;11.546;2023-02-15T00:14:17;2.70;99.90
17986;DHT22;9118;48.122;11.546;2023-02-15T00:16:45;3.00;99.90
17986;DHT22;9118;48.122;11.546;2023-02-15T00:19:15;3.90;99.90
17986;DHT22;9118;48.122;11.546;2023-02-15T00:21:42;3.00;99.90
17986;DHT22;9118;48.122;11.546;2023-02-15T00:24:12;3.30;99.90
17986;DHT22;9118;48.122;11.546;2023-02-15T00:26:41;3.00;99.90
17986;DHT22;9118;48.122;11.546;2023-02-15T00:29:10;3.00;99.90
17986;DHT22;9118;48.122;11.546;2023-02-15T00:31:37;3.20;99.90
17986;DHT22;9118;48.122;11.546;2023-02-15T00:34:05;3.10;99.90
17986;DHT22;9118;48.122;11.546;2023-02-15T00:36:33;3.30;99.90
17986;DHT22;9118;48.122;11.546;2023-02-15T00:39:00;4.00;99.90
17986;DHT22;9118;48.122;11.546;2023-02-15T00:41:28;4.10;99.90
17986;DHT22;9118;48.122;11.546;2023-02-15T00:43:57;3.00;99.90
17986;DHT22;9118;48.122;11.546;2023-02-15T00:46:24;3.20;99.90
17986;DHT22;9118;48.122;11.546;2023-02-15T00:48:51;3.30;99.90
17986;DHT22;9118;48.122;11.546;2023-02-15T00:51:18;3.60;99.90
17986;DHT22;9118;48.122;11.546;2023-02-15T00:53:46;4.10;99.90
17986;DHT22;9118;48.122;11.546;2023-02-15T00:56:13;2.80;99.90
17986;DHT22;9118;48.122;11.546;2023-02-15T00:58:40;3.20;99.90
17986;DHT22;9118;48.122;11.546;2023-02-15T01:01:10;3.20;99.90
17986;DHT22;9118;48.122;11.546;2023-02-15T01:03:37;3.00;99.90
17986;DHT22;9118;48.122;11.546;2023-02-15T01:06:04;3.60;99.90
17986;DHT22;9118;48.122;11.546;2023-02-15T01:08:31;3.30;99.90
17986;DHT22;9118;48.122;11.546;2023-02-15T01:11:03;3.10;99.90
17986;DHT22;9118;48.122;11.546;2023-02-15T01:13:30;3.70;99.90
17986;DHT22;9118;48.122;11.546;2023-02-15T01:15:57;3.30;99.90
17986;DHT22;9118;48.122;11.546;2023-02-15T01:18:26;3.40;99.90
17986;DHT22;9118;48.122;11.546;2023-02-15T01:20:53;2.90;99.90
17986;DHT22;9118;48.122;11.546;2023-02-15T01:23:20;3.20;99.90
17986;DHT22;9118;48.122;11.546;2023-02-15T01:25:47;2.80;99.90
17986;DHT22;9118;48.122;11.546;2023-02-15T01:28:14;3.70;99.90
17986;DHT22;9118;48.122;11.546;2023-02-15T01:30:41;3.50;99.90
17986;DHT22;9118;48.122;11.546;2023-02-15T01:33:09;2.70;99.90
17986;DHT22;9118;48.122;11.546;2023-02-15T01:35:44;3.50;99.90
17986;DHT22;9118;48.122;11.546;2023-02-15T01:38:12;2.90;99.90
17986;DHT22;9118;48.122;11.546;2023-02-15T01:40:39;2.50;99.90
17986;DHT22;9118;48.122;11.546;2023-02-15T01:43:09;2.80;99.90
17986;DHT22;9118;48.122;11.546;2023-02-15T01:45:36;2.80;99.90
17986;DHT22;9118;48.122;11.546;2023-02-15T01:48:06;2.60;99.90
17986;DHT22;9118;48.122;11.546;2023-02-15T01:50:44;3.00;99.90
17986;DHT22;9118;48.122;11.546;2023-02-15T01:53:18;2.60;99.90
17986;DHT22;9118;48.122;11.546;2023-02-15T01:55:50;2.70;99.90
17986;DHT22;9118;48.122;11.546;2023-02-15T01:58:20;2.70;99.90
17986;DHT22;9118;48.122;11.546;2023-02-15T02:00:48;2.60;99.90
17986;DHT22;9118;48.122;11.546;2023-02-15T02:03:15;3.20;99.90
17986;DHT22;9118;48.122;11.546;2023-02-15T02:08:11;2.30;99.90
17986;DHT22;9118;48.122;11.546;2023-02-15T02:10:38;1.90;99.90
17986;DHT22;9118;48.122;11.546;2023-02-15T02:13:06;2.10;99.90
17986;DHT22;9118;48.122;11.546;2023-02-15T02:15:40;1.90;99.90
17986;DHT22;9118;48.122;11.546;2023-02-15T02:18:22;1.70;99.90
17986;DHT22;9118;48.122;11.546;2023-02-15T02:24:31;2.00;99.90
17986;DHT22;9118;48.122;11.546;2023-02-15T02:27:28;2.60;99.90
17986;DHT22;9118;48.122;11.546;2023-02-15T02:30:40;2.90;99.90
17986;DHT22;9118;48.122;11.546;2023-02-15T02:33:37;3.50;99.90
17986;DHT22;9118;48.122;11.546;2023-02-15T02:36:15;2.30;99.90
17986;DHT22;9118;48.122;11.546;2023-02-15T02:38:57;2.60;99.90
17986;DHT22;9118;48.122;11.546;2023-02-15T02:41:31;2.90;99.90
17986;DHT22;9118;48.122;11.546;2023-02-15T02:44:04;2.40;99.90
17986;DHT22;9118;48.122;11.546;2023-02-15T02:46:38;2.60;99.90
17986;DHT22;9118;48.122;11.546;2023-02-15T02:49:07;3.30;99.90
17986;DHT22;9118;48.122;11.546;2023-02-15T02:51:34;2.20;99.90
17986;DHT22;9118;48.122;11.546;2023-02-15T02:54:04;2.90;99.90
17986;DHT22;9118;48.122;11.546;2023-02-15T02:56:35;2.40;99.90
17986;DHT22;9118;48.122;11.546;2023-02-15T02:59:06;2.30;99.90
17986;DHT22;9118;48.122;11.546;2023-02-15T03:01:38;2.60;99.90
17986;DHT22;9118;48.122;11.546;2023-02-15T03:04:10;2.20;99.90
17986;DHT22;9118;48.122;11.546;2023-02-15T03:06:42;3.00;99.90
17986;DHT22;9118;48.122;11.546;2023-02-15T03:09:17;3.00;99.90
17986;DHT22;9118;48.122;11.546;2023-02-15T03:11:46;2.50;99.90
17986;DHT22;9118;48.122;11.546;2023-02-15T03:14:17;2.30;99.90
17986;DHT22;9118;48.122;11.546;2023-02-15T03:16:46;2.50;99.90
17986;DHT22;9118;48.122;11.546;2023-02-15T03:19:19;3.10;99.90
17986;DHT22;9118;48.122;11.546;2023-02-15T03:21:49;3.10;99.90
17986;DHT22;9118;48.122;11.546;2023-02-15T03:24:26;2.60;99.90
17986;DHT22;9118;48.122;11.546;2023-02-15T03:26:56;2.60;99.90
17986;DHT22;9118;48.122;11.546;2023-02-15T03:29:25;1.90;99.90
17986;DHT22;9118;48.122;11.546;2023-02-15T03:31:57;2.30;99.90
17986;DHT22;9118;48.122;11.546;2023-02-15T03:34:27;1.90;99.90
17986;DHT22;9118;48.122;11.546;2023-02-15T03:36:59;1.90;99.90
17986;DHT22;9118;48.122;11.546;2023-02-15T03:39:30;2.00;99.90
17986;DHT22;9118;48.122;11.546;2023-02-15T03:42:05;1.80;99.90
17986;DHT22;9118;48.122;11.546;2023-02-15T03:44:45;2.70;99.90
17986;DHT22;9118;48.122;11.546;2023-02-15T03:47:17;2.40;99.90
17986;DHT22;9118;48.122;11.546;2023-02-15T03:49:50;2.50;99.90
17986;DHT22;9118;48.122;11.546;2023-02-15T03:52:20;1.60;99.90
17986;DHT22;9118;48.122;11.546;2023-02-15T03:54:47;1.60;99.90
17986;DHT22;9118;48.122;11.546;2023-02-15T03:57:18;2.90;99.90
17986;DHT22;9118;48.122;11.546;2023-02-15T04:00:06;1.40;99.90
17986;DHT22;9118;48.122;11.546;2023-02-15T04:03:10;1.90;99.90
17986;DHT22;9118;48.122;11.546;2023-02-15T04:05:41;1.70;99.90
17986;DHT22;9118;48.122;11.546;2023-02-15T04:08:08;2.50;99.90
17986;DHT22;9118;48.122;11.546;2023-02-15T04:10:35;2.70;99.90
17986;DHT22;9118;48.122;11.546;2023-02-15T04:13:23;2.10;99.90
17986;DHT22;9118;48.122;11.546;2023-02-15T04:15:51;1.90;99.90
17986;DHT22;9118;48.122;11.546;2023-02-15T04:18:32;2.80;99.90
17986;DHT22;9118;48.122;11.546;2023-02-15T04:21:19;3.70;99.90
17986;DHT22;9118;48.122;11.546;2023-02-15T04:24:05;2.20;99.90
17986;DHT22;9118;48.122;11.546;2023-02-15T04:26:49;2.30;99.90
17986;DHT22;9118;48.122;11.546;2023-02-15T04:29:18;2.50;99.90
17986;DHT22;9118;48.122;11.546;2023-02-15T04:31:45;2.50;99.90
17986;DHT22;9118;48.122;11.546;2023-02-15T04:34:12;2.60;99.90
17986;DHT22;9118;48.122;11.546;2023-02-15T04:36:41;2.40;99.90
17986;DHT22;9118;48.122;11.546;2023-02-15T04:39:08;2.50;99.90
17986;DHT22;9118;48.122;11.546;2023-02-15T04:41:35;2.50;99.90
17986;DHT22;9118;48.122;11.546;2023-02-15T04:44:03;2.30;99.90
17986;DHT22;9118;48.122;11.546;2023-02-15T04:46:30;1.90;99.90
17986;DHT22;9118;48.122;11.546;2023-02-15T04:48:57;2.10;99.90
17986;DHT22;9118;48.122;11.546;2023-02-15T04:51:24;2.00;99.90
17986;DHT22;9118;48.122;11.546;2023-02-15T04:53:53;1.60;99.90
17986;DHT22;9118;48.122;11.546;2023-02-15T04:56:20;1.60;99.90
17986;DHT22;9118;48.122;11.546;2023-02-15T04:58:48;1.90;99.90
17986;DHT22;9118;48.122;11.546;2023-02-15T05:01:15;1.30;99.90
17986;DHT22;9118;48.122;11.546;2023-02-15T05:03:42;2.00;99.90
17986;DHT22;9118;48.122;11.546;2023-02-15T05:06:09;1.80;99.90
17986;DHT22;9118;48.122;11.546;2023-02-15T05:08:36;1.10;99.90
17986;DHT22;9118;48.122;11.546;2023-02-15T05:11:05;0.80;99.90
17986;DHT22;9118;48.122;11.546;2023-02-15T05:13:32;0.90;99.90
17986;DHT22;9118;48.122;11.546;2023-02-15T05:15:59;1.30;99.90
17986;DHT22;9118;48.122;11.546;2023-02-15T05:18:26;1.90;99.90
17986;DHT22;9118;48.122;11.546;2023-02-15T05:20:53;1.30;99.90
17986;DHT22;9118;48.122;11.546;2023-02-15T05:23:20;1.80;99.90
17986;DHT22;9118;48.122;11.546;2023-02-15T05:25:47;2.20;99.90
17986;DHT22;9118;48.122;11.546;2023-02-15T05:28:34;2.40;99.90
17986;DHT22;9118;48.122;11.546;2023-02-15T05:31:06;2.10;99.90
17986;DHT22;9118;48.122;11.546;2023-02-15T05:33:34;1.60;99.90
17986;DHT22;9118;48.122;11.546;2023-02-15T05:36:01;1.90;99.90
17986;DHT22;9118;48.122;11.546;2023-02-15T05:38:29;2.10;99.90
17986;DHT22;9118;48.122;11.546;2023-02-15T05:40:56;2.50;99.90
17986;DHT22;9118;48.122;11.546;2023-02-15T05:43:24;1.40;99.90
17986;DHT22;9118;48.122;11.546;2023-02-15T05:45:54;1.50;99.90
17986;DHT22;9118;48.122;11.546;2023-02-15T05:48:24;1.90;99.90
17986;DHT22;9118;48.122;11.546;2023-02-15T05:50:57;2.00;99.90
17986;DHT22;9118;48.122;11.546;2023-02-15T05:53:25;1.70;99.90
17986;DHT22;9118;48.122;11.546;2023-02-15T05:55:52;1.90;99.90
17986;DHT22;9118;48.122;11.546;2023-02-15T06:01:41;2.10;99.90
17986;DHT22;9118;48.122;11.546;2023-02-15T06:04:08;0.70;99.90
17986;DHT22;9118;48.122;11.546;2023-02-15T06:06:35;1.70;99.90
17986;DHT22;9118;48.122;11.546;2023-02-15T06:09:02;1.30;99.90
17986;DHT22;9118;48.122;11.546;2023-02-15T06:11:29;1.40;99.90
17986;DHT22;9118;48.122;11.546;2023-02-15T06:13:56;1.30;99.90
17986;DHT22;9118;48.122;11.546;2023-02-15T06:16:23;1.40;99.90
17986;DHT22;9118;48.122;11.546;2023-02-15T06:18:52;1.40;99.90
17986;DHT22;9118;48.122;11.546;2023-02-15T06:21:19;2.20;99.90
17986;DHT22;9118;48.122;11.546;2023-02-15T06:23:46;3.00;99.90
17986;DHT22;9118;48.122;11.546;2023-02-15T06:26:13;1.40;99.90
17986;DHT22;9118;48.122;11.546;2023-02-15T06:28:40;2.20;99.90
17986;DHT22;9118;48.122;11.546;2023-02-15T06:31:07;2.10;99.90
17986;DHT22;9118;48.122;11.546;2023-02-15T06:33:34;1.50;99.90
17986;DHT22;9118;48.122;11.546;2023-02-15T06:36:03;2.20;99.90
17986;DHT22;9118;48.122;11.546;2023-02-15T06:38:30;1.30;99.90
17986;DHT22;9118;48.122;11.546;2023-02-15T06:40:57;0.90;99.90
17986;DHT22;9118;48.122;11.546;2023-02-15T06:43:24;1.50;99.90
17986;DHT22;9118;48.122;11.546;2023-02-15T06:45:51;1.60;99.90
17986;DHT22;9118;48.122;11.546;2023-02-15T06:48:18;2.10;99.90
17986;DHT22;9118;48.122;11.546;2023-02-15T06:50:45;1.20;99.90
17986;DHT22;9118;48.122;11.546;2023-02-15T06:53:13;1.80;99.90
17986;DHT22;9118;48.122;11.546;2023-02-15T06:55:42;2.30;99.90
17986;DHT22;9118;48.122;11.546;2023-02-15T06:58:09;2.30;99.90
17986;DHT22;9118;48.122;11.546;2023-02-15T07:00:36;1.90;99.90
17986;DHT22;9118;48.122;11.546;2023-02-15T07:03:03;2.70;99.90
17986;DHT22;9118;48.122;11.546;2023-02-15T07:05:33;1.70;99.90
17986;DHT22;9118;48.122;11.546;2023-02-15T07:08:00;1.70;99.90
17986;DHT22;9118;48.122;11.546;2023-02-15T07:10:29;1.50;99.90
17986;DHT22;9118;48.122;11.546;2023-02-15T07:12:56;2.10;99.90
17986;DHT22;9118;48.122;11.546;2023-02-15T07:15:22;2.10;99.90
17986;DHT22;9118;48.122;11.546;2023-02-15T07:17:50;1.70;99.90
17986;DHT22;9118;48.122;11.546;2023-02-15T07:20:19;2.20;99.90
17986;DHT22;9118;48.122;11.546;2023-02-15T07:22:47;1.80;99.90
17986;DHT22;9118;48.122;11.546;2023-02-15T07:25:16;1.80;99.90
17986;DHT22;9118;48.122;11.546;2023-02-15T07:27:46;1.70;99.90
17986;DHT22;9118;48.122;11.546;2023-02-15T07:30:16;2.00;99.90
17986;DHT22;9118;48.122;11.546;2023-02-15T07:32:43;2.00;99.90
17986;DHT22;9118;48.122;11.546;2023-02-15T07:35:28;2.50;99.90
17986;DHT22;9118;48.122;11.546;2023-02-15T07:37:55;2.70;99.90
17986;DHT22;9118;48.122;11.546;2023-02-15T07:40:22;2.10;99.90
17986;DHT22;9118;48.122;11.546;2023-02-15T07:42:51;2.20;99.90
17986;DHT22;9118;48.122;11.546;2023-02-15T07:45:20;2.40;99.90
17986;DHT22;9118;48.122;11.546;2023-02-15T07:47:47;2.60;99.90
17986;DHT22;9118;48.122;11.546;2023-02-15T07:50:15;2.60;99.90
17986;DHT22;9118;48.122;11.546;2023-02-15T07:52:42;2.20;99.90
17986;DHT22;9118;48.122;11.546;2023-02-15T07:55:09;2.70;99.90
17986;DHT22;9118;48.122;11.546;2023-02-15T07:57:42;2.20;99.90
17986;DHT22;9118;48.122;11.546;2023-02-15T08:00:15;3.20;99.90
17986;DHT22;9118;48.122;11.546;2023-02-15T08:02:42;2.40;99.90
17986;DHT22;9118;48.122;11.546;2023-02-15T08:05:09;2.90;99.90
17986;DHT22;9118;48.122;11.546;2023-02-15T08:07:36;2.20;99.90
17986;DHT22;9118;48.122;11.546;2023-02-15T08:10:04;2.90;99.90
17986;DHT22;9118;48.122;11.546;2023-02-15T08:12:32;2.80;99.90
17986;DHT22;9118;48.122;11.546;2023-02-15T08:14:58;3.50;99.90
17986;DHT22;9118;48.122;11.546;2023-02-15T08:17:27;3.20;99.90
17986;DHT22;9118;48.122;11.546;2023-02-15T08:19:54;3.00;99.90
17986;DHT22;9118;48.122;11.546;2023-02-15T08:22:21;3.10;99.90
17986;DHT22;9118;48.122;11.546;2023-02-15T08:24:48;2.90;99.90
17986;DHT22;9118;48.122;11.546;2023-02-15T08:27:15;2.90;99.90
17986;DHT22;9118;48.122;11.546;2023-02-15T08:29:42;3.00;99.90
17986;DHT22;9118;48.122;11.546;2023-02-15T08:32:13;3.00;99.90
17986;DHT22;9118;48.122;11.546;2023-02-15T08:34:41;3.70;99.90
17986;DHT22;9118;48.122;11.546;2023-02-15T08:37:08;2.40;99.90
17986;DHT22;9118;48.122;11.546;2023-02-15T08:39:35;2.90;99.90
17986;DHT22;9118;48.122;11.546;2023-02-15T08:42:03;2.60;99.90
17986;DHT22;9118;48.122;11.546;2023-02-15T08:44:30;2.60;99.90
17986;DHT22;9118;48.122;11.546;2023-02-15T08:46:57;2.90;99.90
17986;DHT22;9118;48.122;11.546;2023-02-15T08:49:28;2.80;99.90
17986;DHT22;9118;48.122;11.546;2023-02-15T08:51:56;2.80;99.90
17986;DHT22;9118;48.122;11.546;2023-02-15T08:54:24;2.60;99.90
17986;DHT22;9118;48.122;11.546;2023-02-15T08:56:50;2.80;99.90
17986;DHT22;9118;48.122;11.546;2023-02-15T08:59:19;2.80;99.90
17986;DHT22;9118;48.122;11.546;2023-02-15T09:01:48;2.90;99.90
17986;DHT22;9118;48.122;11.546;2023-02-15T09:04:15;4.20;99.90
17986;DHT22;9118;48.122;11.546;2023-02-15T09:06:43;2.80;99.90
17986;DHT22;9118;48.122;11.546;2023-02-15T09:09:12;3.80;99.90
17986;DHT22;9118;48.122;11.546;2023-02-15T09:11:40;3.80;99.90
17986;DHT22;9118;48.122;11.546;2023-02-15T09:14:10;2.90;99.90
17986;DHT22;9118;48.122;11.546;2023-02-15T09:16:40;2.40;99.90
17986;DHT22;9118;48.122;11.546;2023-02-15T09:19:07;3.30;99.90
17986;DHT22;9118;48.122;11.546;2023-02-15T09:21:36;2.70;99.90
17986;DHT22;9118;48.122;11.546;2023-02-15T09:24:06;3.50;99.90
17986;DHT22;9118;48.122;11.546;2023-02-15T09:26:37;2.80;99.90
17986;DHT22;9118;48.122;11.546;2023-02-15T09:29:06;2.80;99.90
17986;DHT22;9118;48.122;11.546;2023-02-15T09:31:37;3.60;99.90
17986;DHT22;9118;48.122;11.546;2023-02-15T09:34:04;3.00;99.90
17986;DHT22;9118;48.122;11.546;2023-02-15T09:36:33;3.80;99.90
17986;DHT22;9118;48.122;11.546;2023-02-15T09:39:04;3.00;99.90
17986;DHT22;9118;48.122;11.546;2023-02-15T09:41:56;3.20;99.90
17986;DHT22;9118;48.122;11.546;2023-02-15T09:44:35;3.00;99.90
17986;DHT22;9118;48.122;11.546;2023-02-15T09:47:22;4.30;99.90
17986;DHT22;9118;48.122;11.546;2023-02-15T09:49:58;3.50;99.90
17986;DHT22;9118;48.122;11.546;2023-02-15T09:52:38;3.60;99.90
17986;DHT22;9118;48.122;11.546;2023-02-15T09:55:21;4.30;99.90
17986;DHT22;9118;48.122;11.546;2023-02-15T09:58:01;3.70;99.90
17986;DHT22;9118;48.122;11.546;2023-02-15T10:00:37;4.20;99.90
17986;DHT22;9118;48.122;11.546;2023-02-15T10:03:27;4.30;99.90
17986;DHT22;9118;48.122;11.546;2023-02-15T10:06:18;4.20;99.90
17986;DHT22;9118;48.122;11.546;2023-02-15T10:09:01;4.20;99.90
17986;DHT22;9118;48.122;11.546;2023-02-15T10:11:41;4.80;99.90
17986;DHT22;9118;48.122;11.546;2023-02-15T10:17:29;4.50;99.90
17986;DHT22;9118;48.122;11.546;2023-02-15T10:20:14;4.80;99.90
17986;DHT22;9118;48.122;11.546;2023-02-15T10:22:56;4.60;99.90
17986;DHT22;9118;48.122;11.546;2023-02-15T10:25:37;4.80;99.90
17986;DHT22;9118;48.122;11.546;2023-02-15T10:28:16;4.80;99.90
17986;DHT22;9118;48.122;11.546;2023-02-15T10:30:47;4.90;99.90
17986;DHT22;9118;48.122;11.546;2023-02-15T10:33:34;5.00;99.90
17986;DHT22;9118;48.122;11.546;2023-02-15T10:36:11;5.40;99.90
17986;DHT22;9118;48.122;11.546;2023-02-15T10:38:47;5.20;99.90
17986;DHT22;9118;48.122;11.546;2023-02-15T10:41:28;4.70;99.90
17986;DHT22;9118;48.122;11.546;2023-02-15T10:44:11;5.50;99.90
17986;DHT22;9118;48.122;11.546;2023-02-15T10:46:53;4.50;99.90
17986;DHT22;9118;48.122;11.546;2023-02-15T10:49:52;4.90;99.90
17986;DHT22;9118;48.122;11.546;2023-02-15T10:52:30;5.10;99.90
17986;DHT22;9118;48.122;11.546;2023-02-15T10:55:08;4.70;99.90
17986;DHT22;9118;48.122;11.546;2023-02-15T10:57:46;5.30;99.90
17986;DHT22;9118;48.122;11.546;2023-02-15T11:00:22;5.60;99.90
17986;DHT22;9118;48.122;11.546;2023-02-15T11:03:05;5.60;99.90
17986;DHT22;9118;48.122;11.546;2023-02-15T11:05:42;5.50;99.90
17986;DHT22;9118;48.122;11.546;2023-02-15T11:08:15;5.70;99.90
17986;DHT22;9118;48.122;11.546;2023-02-15T11:10:45;5.90;99.90
17986;DHT22;9118;48.122;11.546;2023-02-15T11:13:16;5.80;99.90
17986;DHT22;9118;48.122;11.546;2023-02-15T11:15:46;6.00;99.90
17986;DHT22;9118;48.122;11.546;2023-02-15T11:18:21;6.10;99.90
17986;DHT22;9118;48.122;11.546;2023-02-15T11:20:54;6.40;99.90
17986;DHT22;9118;48.122;11.546;2023-02-15T11:23:24;6.40;99.90
17986;DHT22;9118;48.122;11.546;2023-02-15T11:25:57;6.40;99.90
17986;DHT22;9118;48.122;11.546;2023-02-15T11:28:30;6.60;99.90
17986;DHT22;9118;48.122;11.546;2023-02-15T11:31:02;6.60;99.90
17986;DHT22;9118;48.122;11.546;2023-02-15T11:33:43;6.80;99.90
17986;DHT22;9118;48.122;11.546;2023-02-15T11:36:14;6.80;99.90
17986;DHT22;9118;48.122;11.546;2023-02-15T11:38:44;6.70;99.90
17986;DHT22;9118;48.122;11.546;2023-02-15T11:41:18;7.40;99.90
17986;DHT22;9118;48.122;11.546;2023-02-15T11:43:49;7.00;99.90
17986;DHT22;9118;48.122;11.546;2023-02-15T11:46:19;7.10;99.90
17986;DHT22;9118;48.122;11.546;2023-02-15T11:48:48;7.10;99.90
17986;DHT22;9118;48.122;11.546;2023-02-15T11:51:17;7.40;99.90
17986;DHT22;9118;48.122;11.546;2023-02-15T11:53:47;7.30;99.90
17986;DHT22;9118;48.122;11.546;2023-02-15T11:56:17;7.30;99.90
17986;DHT22;9118;48.122;11.546;2023-02-15T11:58:47;7.10;99.90
17986;DHT22;9118;48.122;11.546;2023-02-15T12:01:20;7.50;99.90
17986;DHT22;9118;48.122;11.546;2023-02-15T12:03:51;7.50;99.90
17986;DHT22;9118;48.122;11.546;2023-02-15T12:06:24;7.60;99.90
17986;DHT22;9118;48.122;11.546;2023-02-15T12:08:57;7.50;99.90
17986;DHT22;9118;48.122;11.546;2023-02-15T12:11:33;7.80;99.90
17986;DHT22;9118;48.122;11.546;2023-02-15T12:14:02;7.70;99.90
17986;DHT22;9118;48.122;11.546;2023-02-15T12:16:40;7.60;99.90
17986;DHT22;9118;48.122;11.546;2023-02-15T12:19:21;7.80;99.90
17986;DHT22;9118;48.122;11.546;2023-02-15T12:21:52;8.00;99.90
17986;DHT22;9118;48.122;11.546;2023-02-15T12:24:22;8.00;99.90
17986;DHT22;9118;48.122;11.546;2023-02-15T12:37:34;7.80;99.90
17986;DHT22;9118;48.122;11.546;2023-02-15T12:40:22;8.00;99.90
17986;DHT22;9118;48.122;11.546;2023-02-15T12:45:55;8.70;99.90
17986;DHT22;9118;48.122;11.546;2023-02-15T12:48:28;8.20;99.90
17986;DHT22;9118;48.122;11.546;2023-02-15T12:51:07;8.10;99.90
17986;DHT22;9118;48.122;11.546;2023-02-15T12:53:41;8.30;99.90
17986;DHT22;9118;48.122;11.546;2023-02-15T12:56:31;8.40;99.90
17986;DHT22;9118;48.122;11.546;2023-02-15T12:59:21;8.40;99.90
17986;DHT22;9118;48.122;11.546;2023-02-15T13:02:12;8.40;99.90
17986;DHT22;9118;48.122;11.546;2023-02-15T13:04:47;8.80;99.90
17986;DHT22;9118;48.122;11.546;2023-02-15T13:07:20;8.50;99.90
17986;DHT22;9118;48.122;11.546;2023-02-15T13:09:48;8.60;99.90
17986;DHT22;9118;48.122;11.546;2023-02-15T13:12:20;8.60;99.90
17986;DHT22;9118;48.122;11.546;2023-02-15T13:14:51;8.80;99.90
17986;DHT22;9118;48.122;11.546;2023-02-15T13:17:21;8.60;99.90
17986;DHT22;9118;48.122;11.546;2023-02-15T13:19:56;8.80;99.90
17986;DHT22;9118;48.122;11.546;2023-02-15T13:22:32;8.90;99.90
17986;DHT22;9118;48.122;11.546;2023-02-15T13:25:04;9.00;99.90
17986;DHT22;9118;48.122;11.546;2023-02-15T13:27:36;8.90;99.90
17986;DHT22;9118;48.122;11.546;2023-02-15T13:30:16;8.80;99.90
17986;DHT22;9118;48.122;11.546;2023-02-15T13:32:49;9.50;99.90
17986;DHT22;9118;48.122;11.546;2023-02-15T13:35:18;8.80;99.90
17986;DHT22;9118;48.122;11.546;2023-02-15T13:37:59;9.10;99.90
17986;DHT22;9118;48.122;11.546;2023-02-15T13:40:34;9.10;99.90
17986;DHT22;9118;48.122;11.546;2023-02-15T13:43:10;9.00;99.90
17986;DHT22;9118;48.122;11.546;2023-02-15T13:45:52;9.00;99.90
17986;DHT22;9118;48.122;11.546;2023-02-15T13:48:30;9.30;99.90
17986;DHT22;9118;48.122;11.546;2023-02-15T13:51:10;9.10;99.90
17986;DHT22;9118;48.122;11.546;2023-02-15T13:53:56;9.10;99.90
17986;DHT22;9118;48.122;11.546;2023-02-15T13:56:35;9.10;99.90
17986;DHT22;9118;48.122;11.546;2023-02-15T14:05:54;9.30;99.90
17986;DHT22;9118;48.122;11.546;2023-02-15T14:08:51;9.50;99.90
17986;DHT22;9118;48.122;11.546;2023-02-15T14:11:32;9.10;99.90
17986;DHT22;9118;48.122;11.546;2023-02-15T14:14:28;9.20;99.90
17986;DHT22;9118;48.122;11.546;2023-02-15T14:17:10;9.00;99.90
17986;DHT22;9118;48.122;11.546;2023-02-15T14:20:02;9.40;99.90
17986;DHT22;9118;48.122;11.546;2023-02-15T14:22:35;8.80;99.90
17986;DHT22;9118;48.122;11.546;2023-02-15T14:25:18;8.90;99.90
17986;DHT22;9118;48.122;11.546;2023-02-15T14:27:56;8.90;99.90
17986;DHT22;9118;48.122;11.546;2023-02-15T14:30:30;9.00;99.90
17986;DHT22;9118;48.122;11.546;2023-02-15T14:33:02;9.20;99.90
17986;DHT22;9118;48.122;11.546;2023-02-15T14:35:31;8.60;99.90
17986;DHT22;9118;48.122;11.546;2023-02-15T14:38:02;8.60;99.90
17986;DHT22;9118;48.122;11.546;2023-02-15T14:40:39;8.70;99.90
17986;DHT22;9118;48.122;11.546;2023-02-15T14:43:56;8.60;99.90
17986;DHT22;9118;48.122;11.546;2023-02-15T14:46:37;8.60;99.90
17986;DHT22;9118;48.122;11.546;2023-02-15T14:49:11;8.80;99.90
17986;DHT22;9118;48.122;11.546;2023-02-15T14:51:54;8.40;99.90
17986;DHT22;9118;48.122;11.546;2023-02-15T14:54:54;8.00;99.90
17986;DHT22;9118;48.122;11.546;2023-02-15T14:57:26;8.50;99.90
17986;DHT22;9118;48.122;11.546;2023-02-15T14:59:59;9.20;99.90
17986;DHT22;9118;48.122;11.546;2023-02-15T15:02:41;8.70;99.90
17986;DHT22;9118;48.122;11.546;2023-02-15T15:05:11;8.60;99.90
17986;DHT22;9118;48.122;11.546;2023-02-15T15:07:43;8.30;99.90
17986;DHT22;9118;48.122;11.546;2023-02-15T15:10:38;8.40;99.90
17986;DHT22;9118;48.122;11.546;2023-02-15T15:16:50;8.10;99.90
17986;DHT22;9118;48.122;11.546;2023-02-15T15:22:32;8.30;99.90
17986;DHT22;9118;48.122;11.546;2023-02-15T15:25:11;8.10;99.90
17986;DHT22;9118;48.122;11.546;2023-02-15T15:27:49;7.50;99.90
17986;DHT22;9118;48.122;11.546;2023-02-15T15:45:46;7.90;99.90
17986;DHT22;9118;48.122;11.546;2023-02-15T15:48:32;8.00;99.90
17986;DHT22;9118;48.122;11.546;2023-02-15T15:51:03;7.70;99.90
17986;DHT22;9118;48.122;11.546;2023-02-15T15:53:37;8.20;99.90
17986;DHT22;9118;48.122;11.546;2023-02-15T15:56:10;7.70;99.90
17986;DHT22;9118;48.122;11.546;2023-02-15T15:58:44;8.00;99.90
17986;DHT22;9118;48.122;11.546;2023-02-15T16:01:12;7.70;99.90
17986;DHT22;9118;48.122;11.546;2023-02-15T16:03:49;7.50;99.90
17986;DHT22;9118;48.122;11.546;2023-02-15T16:06:32;7.60;99.90
17986;DHT22;9118;48.122;11.546;2023-02-15T16:09:13;7.60;99.90
17986;DHT22;9118;48.122;11.546;2023-02-15T16:11:43;7.60;99.90
17986;DHT22;9118;48.122;11.546;2023-02-15T16:14:15;7.60;99.90
17986;DHT22;9118;48.122;11.546;2023-02-15T16:16:49;7.50;99.90
17986;DHT22;9118;48.122;11.546;2023-02-15T16:19:20;6.90;99.90
17986;DHT22;9118;48.122;11.546;2023-02-15T16:21:48;7.30;99.90
17986;DHT22;9118;48.122;11.546;2023-02-15T16:30:24;7.40;99.90
17986;DHT22;9118;48.122;11.546;2023-02-15T16:32:53;7.20;99.90
17986;DHT22;9118;48.122;11.546;2023-02-15T16:35:22;7.10;99.90
17986;DHT22;9118;48.122;11.546;2023-02-15T16:37:49;6.90;99.90
17986;DHT22;9118;48.122;11.546;2023-02-15T16:43:15;5.50;99.90
17986;DHT22;9118;48.122;11.546;2023-02-15T16:45:44;7.10;99.90
17986;DHT22;9118;48.122;11.546;2023-02-15T16:48:17;6.70;99.90
17986;DHT22;9118;48.122;11.546;2023-02-15T16:50:48;7.00;99.90
17986;DHT22;9118;48.122;11.546;2023-02-15T16:53:20;6.30;99.90
17986;DHT22;9118;48.122;11.546;2023-02-15T16:55:50;6.50;99.90
17986;DHT22;9118;48.122;11.546;2023-02-15T16:58:24;7.00;99.90
17986;DHT22;9118;48.122;11.546;2023-02-15T17:00:55;6.60;99.90
17986;DHT22;9118;48.122;11.546;2023-02-15T17:03:25;6.30;99.90
17986;DHT22;9118;48.122;11.546;2023-02-15T17:05:53;6.30;99.90
17986;DHT22;9118;48.122;11.546;2023-02-15T17:08:26;6.10;99.90
17986;DHT22;9118;48.122;11.546;2023-02-15T17:11:17;7.20;99.90
17986;DHT22;9118;48.122;11.546;2023-02-15T17:14:16;6.30;99.90
17986;DHT22;9118;48.122;11.546;2023-02-15T17:16:49;5.30;99.90
17986;DHT22;9118;48.122;11.546;2023-02-15T17:19:21;6.00;99.90
17986;DHT22;9118;48.122;11.546;2023-02-15T17:21:51;5.50;99.90
17986;DHT22;9118;48.122;11.546;2023-02-15T17:24:24;6.50;99.90